sensor_id;sensor_type;location;lat;lon;timestamp;pressure;altitude;pressure_sealevel;temperature;humidity
60918;BME280;46792;38.854;-9.384;2023-01-30T00:00:08;100336.13;;;7.13;62.62
60918;BME280;46792;38.854;-9.384;2023-01-30T00:02:08;100338.41;;;7.09;63.11
60918;BME280;46792;38.854;-9.384;2023-01-30T00:04:28;100338.47;;;7.03;63.30
60918;BME280;46792;38.854;-9.384;2023-01-30T00:06:31;100335.03;;;6.95;63.78
60918;BME280;46792;38.854;-9.384;2023-01-30T00:08:32;100344.81;;;6.90;64.41
60918;BME280;46792;38.854;-9.384;2023-01-30T00:10:35;100336.19;;;6.81;64.24
60918;BME280;46792;38.854;-9.384;2023-01-30T00:12:36;100322.81;;;6.74;64.81
60918;BME280;46792;38.854;-9.384;2023-01-30T00:14:36;100333.78;;;6.73;64.92
60918;BME280;46792;38.854;-9.384;2023-01-30T00:16:37;100328.84;;;6.69;65.34
60918;BME280;46792;38.854;-9.384;2023-01-30T00:18:39;100326.16;;;6.69;65.38
60918;BME280;46792;38.854;-9.384;2023-01-30T00:20:40;100321.44;;;6.65;65.66
60918;BME280;46792;38.854;-9.384;2023-01-30T00:22:59;100324.41;;;6.57;65.98
60918;BME280;46792;38.854;-9.384;2023-01-30T00:24:59;100315.16;;;6.52;65.96
60918;BME280;46792;38.854;-9.384;2023-01-30T00:27:00;100317.88;;;6.46;66.21
60918;BME280;46792;38.854;-9.384;2023-01-30T00:29:00;100319.78;;;6.38;67.00
60918;BME280;46792;38.854;-9.384;2023-01-30T00:31:19;100321.91;;;6.30;68.12
60918;BME280;46792;38.854;-9.384;2023-01-30T00:33:38;100317.63;;;6.22;68.64
60918;BME280;46792;38.854;-9.384;2023-01-30T00:35:44;100317.63;;;6.22;68.38
60918;BME280;46792;38.854;-9.384;2023-01-30T00:37:45;100313.91;;;6.23;68.53
60918;BME280;46792;38.854;-9.384;2023-01-30T00:39:46;100310.63;;;6.21;68.52
60918;BME280;46792;38.854;-9.384;2023-01-30T00:41:46;100307.78;;;6.16;68.29
60918;BME280;46792;38.854;-9.384;2023-01-30T00:44:06;100311.50;;;6.15;68.48
60918;BME280;46792;38.854;-9.384;2023-01-30T00:46:31;100306.56;;;6.12;69.04
60918;BME280;46792;38.854;-9.384;2023-01-30T00:48:52;100302.66;;;6.07;69.91
60918;BME280;46792;38.854;-9.384;2023-01-30T00:51:12;100293.16;;;6.12;69.62
60918;BME280;46792;38.854;-9.384;2023-01-30T00:53:14;100292.72;;;6.15;69.34
60918;BME280;46792;38.854;-9.384;2023-01-30T00:55:15;100290.66;;;6.17;69.11
60918;BME280;46792;38.854;-9.384;2023-01-30T00:57:15;100296.44;;;6.14;69.25
60918;BME280;46792;38.854;-9.384;2023-01-30T00:59:16;100287.56;;;6.13;68.99
60918;BME280;46792;38.854;-9.384;2023-01-30T01:01:18;100277.50;;;6.08;69.29
60918;BME280;46792;38.854;-9.384;2023-01-30T01:03:19;100284.31;;;6.04;69.62
60918;BME280;46792;38.854;-9.384;2023-01-30T01:05:22;100281.63;;;6.04;69.85
60918;BME280;46792;38.854;-9.384;2023-01-30T01:07:23;100271.53;;;6.06;69.13
60918;BME280;46792;38.854;-9.384;2023-01-30T01:09:24;100270.72;;;6.06;69.24
60918;BME280;46792;38.854;-9.384;2023-01-30T01:11:26;100275.25;;;6.05;69.00
60918;BME280;46792;38.854;-9.384;2023-01-30T01:13:45;100269.09;;;5.98;68.86
60918;BME280;46792;38.854;-9.384;2023-01-30T01:15:48;100274.88;;;5.95;69.08
60918;BME280;46792;38.854;-9.384;2023-01-30T01:17:49;100267.69;;;5.89;69.39
60918;BME280;46792;38.854;-9.384;2023-01-30T01:20:09;100272.09;;;5.76;70.08
60918;BME280;46792;38.854;-9.384;2023-01-30T01:22:28;100273.72;;;5.77;70.52
60918;BME280;46792;38.854;-9.384;2023-01-30T01:24:28;100268.63;;;5.69;71.26
60918;BME280;46792;38.854;-9.384;2023-01-30T01:26:29;100258.34;;;5.66;71.41
60918;BME280;46792;38.854;-9.384;2023-01-30T01:28:30;100272.50;;;5.73;71.78
60918;BME280;46792;38.854;-9.384;2023-01-30T01:30:30;100271.69;;;5.73;71.67
60918;BME280;46792;38.854;-9.384;2023-01-30T01:32:31;100263.84;;;5.71;70.57
60918;BME280;46792;38.854;-9.384;2023-01-30T01:34:32;100274.94;;;5.82;70.54
60918;BME280;46792;38.854;-9.384;2023-01-30T01:36:35;100280.31;;;5.82;69.90
60918;BME280;46792;38.854;-9.384;2023-01-30T01:38:37;100273.31;;;5.81;69.73
60918;BME280;46792;38.854;-9.384;2023-01-30T01:40:38;100272.28;;;5.82;69.60
60918;BME280;46792;38.854;-9.384;2023-01-30T01:42:57;100272.03;;;5.83;69.63
60918;BME280;46792;38.854;-9.384;2023-01-30T01:47:14;100273.91;;;5.83;69.34
60918;BME280;46792;38.854;-9.384;2023-01-30T01:49:33;100267.72;;;5.82;69.54
60918;BME280;46792;38.854;-9.384;2023-01-30T01:51:44;100267.09;;;5.80;69.08
60918;BME280;46792;38.854;-9.384;2023-01-30T01:53:52;100263.00;;;5.77;69.34
60918;BME280;46792;38.854;-9.384;2023-01-30T01:55:56;100264.44;;;5.80;69.54
60918;BME280;46792;38.854;-9.384;2023-01-30T01:58:06;100267.34;;;5.78;69.46
60918;BME280;46792;38.854;-9.384;2023-01-30T02:00:12;100260.56;;;5.76;69.34
60918;BME280;46792;38.854;-9.384;2023-01-30T02:02:16;100265.47;;;5.79;69.04
60918;BME280;46792;38.854;-9.384;2023-01-30T02:04:16;100271.22;;;5.83;68.45
60918;BME280;46792;38.854;-9.384;2023-01-30T02:06:38;100266.91;;;5.82;68.21
60918;BME280;46792;38.854;-9.384;2023-01-30T02:08:49;100265.25;;;5.81;68.78
60918;BME280;46792;38.854;-9.384;2023-01-30T02:10:57;100273.03;;;5.89;68.31
60918;BME280;46792;38.854;-9.384;2023-01-30T02:13:00;100270.78;;;5.86;68.23
60918;BME280;46792;38.854;-9.384;2023-01-30T02:41:13;100273.25;;;5.87;67.03
60918;BME280;46792;38.854;-9.384;2023-01-30T02:50:48;100268.56;;;5.83;67.34
60918;BME280;46792;38.854;-9.384;2023-01-30T02:52:51;100272.88;;;5.84;67.01
60918;BME280;46792;38.854;-9.384;2023-01-30T02:54:52;100274.53;;;5.85;66.95
60918;BME280;46792;38.854;-9.384;2023-01-30T02:59:54;100269.97;;;5.85;67.40
60918;BME280;46792;38.854;-9.384;2023-01-30T03:09:43;100272.03;;;5.83;67.70
60918;BME280;46792;38.854;-9.384;2023-01-30T03:14:29;100276.59;;;5.83;67.38
60918;BME280;46792;38.854;-9.384;2023-01-30T03:16:37;100275.56;;;5.84;67.23
60918;BME280;46792;38.854;-9.384;2023-01-30T03:18:42;100269.59;;;5.82;66.95
60918;BME280;46792;38.854;-9.384;2023-01-30T03:20:43;100268.38;;;5.77;66.89
60918;BME280;46792;38.854;-9.384;2023-01-30T03:28:00;100278.28;;;5.70;67.88
60918;BME280;46792;38.854;-9.384;2023-01-30T03:32:22;100271.75;;;5.59;67.64
60918;BME280;46792;38.854;-9.384;2023-01-30T03:35:00;100269.31;;;5.51;67.75
60918;BME280;46792;38.854;-9.384;2023-01-30T03:39:38;100284.34;;;5.52;67.90
60918;BME280;46792;38.854;-9.384;2023-01-30T03:41:40;100281.69;;;5.45;67.89
60918;BME280;46792;38.854;-9.384;2023-01-30T03:43:41;100282.09;;;5.49;67.94
60918;BME280;46792;38.854;-9.384;2023-01-30T03:45:43;100282.50;;;5.46;68.05
60918;BME280;46792;38.854;-9.384;2023-01-30T03:50:23;100287.88;;;5.39;68.40
60918;BME280;46792;38.854;-9.384;2023-01-30T03:57:41;100286.72;;;5.28;68.57
60918;BME280;46792;38.854;-9.384;2023-01-30T03:59:42;100281.75;;;5.32;67.90
60918;BME280;46792;38.854;-9.384;2023-01-30T04:01:45;100295.91;;;5.39;67.79
60918;BME280;46792;38.854;-9.384;2023-01-30T04:03:46;100292.81;;;5.42;67.27
60918;BME280;46792;38.854;-9.384;2023-01-30T04:05:48;100278.66;;;5.35;67.37
60918;BME280;46792;38.854;-9.384;2023-01-30T04:08:07;100287.25;;;5.51;67.31
60918;BME280;46792;38.854;-9.384;2023-01-30T04:10:09;100294.84;;;5.47;67.14
60918;BME280;46792;38.854;-9.384;2023-01-30T04:12:10;100289.47;;;5.60;67.04
60918;BME280;46792;38.854;-9.384;2023-01-30T04:14:18;100285.53;;;5.63;67.03
60918;BME280;46792;38.854;-9.384;2023-01-30T04:16:39;100283.66;;;5.63;66.56
60918;BME280;46792;38.854;-9.384;2023-01-30T04:18:58;100279.19;;;5.57;66.61
60918;BME280;46792;38.854;-9.384;2023-01-30T04:21:00;100281.25;;;5.55;66.70
60918;BME280;46792;38.854;-9.384;2023-01-30T04:23:09;100275.06;;;5.61;66.70
60918;BME280;46792;38.854;-9.384;2023-01-30T04:25:28;100279.16;;;5.64;66.64
60918;BME280;46792;38.854;-9.384;2023-01-30T04:27:48;100281.19;;;5.69;66.54
60918;BME280;46792;38.854;-9.384;2023-01-30T04:29:52;100270.91;;;5.59;66.88
60918;BME280;46792;38.854;-9.384;2023-01-30T04:31:53;100266.44;;;5.53;66.92
60918;BME280;46792;38.854;-9.384;2023-01-30T04:33:57;100275.09;;;5.41;67.33
60918;BME280;46792;38.854;-9.384;2023-01-30T04:35:58;100273.41;;;5.54;66.85
60918;BME280;46792;38.854;-9.384;2023-01-30T04:38:00;100271.78;;;5.53;66.85
60918;BME280;46792;38.854;-9.384;2023-01-30T04:40:01;100274.88;;;5.50;67.09
60918;BME280;46792;38.854;-9.384;2023-01-30T04:42:03;100277.38;;;5.44;67.41
60918;BME280;46792;38.854;-9.384;2023-01-30T04:44:10;100274.91;;;5.43;67.35
60918;BME280;46792;38.854;-9.384;2023-01-30T04:46:34;100270.78;;;5.40;67.42
60918;BME280;46792;38.854;-9.384;2023-01-30T04:48:34;100278.19;;;5.38;67.50
60918;BME280;46792;38.854;-9.384;2023-01-30T04:50:36;100280.47;;;5.41;67.90
60918;BME280;46792;38.854;-9.384;2023-01-30T04:52:38;100278.63;;;5.42;67.31
60918;BME280;46792;38.854;-9.384;2023-01-30T04:54:38;100287.47;;;5.42;67.41
60918;BME280;46792;38.854;-9.384;2023-01-30T04:56:39;100280.44;;;5.48;67.32
60918;BME280;46792;38.854;-9.384;2023-01-30T04:58:40;100280.66;;;5.46;67.22
60918;BME280;46792;38.854;-9.384;2023-01-30T05:00:42;100286.81;;;5.47;67.28
60918;BME280;46792;38.854;-9.384;2023-01-30T05:02:42;100288.31;;;5.43;67.15
60918;BME280;46792;38.854;-9.384;2023-01-30T05:04:43;100288.31;;;5.43;67.38
60918;BME280;46792;38.854;-9.384;2023-01-30T05:06:44;100289.94;;;5.51;67.05
60918;BME280;46792;38.854;-9.384;2023-01-30T05:09:03;100293.25;;;5.39;67.04
60918;BME280;46792;38.854;-9.384;2023-01-30T05:11:04;100284.81;;;5.36;67.40
60918;BME280;46792;38.854;-9.384;2023-01-30T05:13:05;100289.56;;;5.33;67.78
60918;BME280;46792;38.854;-9.384;2023-01-30T05:15:06;100282.56;;;5.26;67.47
60918;BME280;46792;38.854;-9.384;2023-01-30T05:17:07;100283.81;;;5.30;67.93
60918;BME280;46792;38.854;-9.384;2023-01-30T05:19:10;100285.88;;;5.28;67.79
60918;BME280;46792;38.854;-9.384;2023-01-30T05:21:21;100292.03;;;5.35;67.21
60918;BME280;46792;38.854;-9.384;2023-01-30T05:23:21;100294.72;;;5.35;67.18
60918;BME280;46792;38.854;-9.384;2023-01-30T05:25:22;100289.16;;;5.30;67.21
60918;BME280;46792;38.854;-9.384;2023-01-30T05:27:23;100290.38;;;5.34;66.81
60918;BME280;46792;38.854;-9.384;2023-01-30T05:29:23;100295.75;;;5.34;66.75
60918;BME280;46792;38.854;-9.384;2023-01-30T05:31:24;100300.06;;;5.35;66.86
60918;BME280;46792;38.854;-9.384;2023-01-30T05:33:24;100302.53;;;5.30;66.93
60918;BME280;46792;38.854;-9.384;2023-01-30T05:35:25;100294.31;;;5.25;66.73
60918;BME280;46792;38.854;-9.384;2023-01-30T05:37:25;100300.50;;;5.25;66.80
60918;BME280;46792;38.854;-9.384;2023-01-30T05:39:29;100301.31;;;5.26;66.44
60918;BME280;46792;38.854;-9.384;2023-01-30T05:41:30;100294.31;;;5.25;66.57
60918;BME280;46792;38.854;-9.384;2023-01-30T05:43:31;100297.00;;;5.25;66.11
60918;BME280;46792;38.854;-9.384;2023-01-30T05:45:32;100294.31;;;5.25;66.07
60918;BME280;46792;38.854;-9.384;2023-01-30T05:47:33;100299.03;;;5.23;66.37
60918;BME280;46792;38.854;-9.384;2023-01-30T05:49:52;100304.00;;;5.19;66.55
60918;BME280;46792;38.854;-9.384;2023-01-30T05:51:52;100296.00;;;5.12;66.49
60918;BME280;46792;38.854;-9.384;2023-01-30T05:53:53;100299.06;;;5.16;66.63
60918;BME280;46792;38.854;-9.384;2023-01-30T05:55:58;100293.72;;;5.09;66.59
60918;BME280;46792;38.854;-9.384;2023-01-30T05:57:59;100296.84;;;5.13;66.95
60918;BME280;46792;38.854;-9.384;2023-01-30T05:59:59;100292.31;;;5.07;66.93
60918;BME280;46792;38.854;-9.384;2023-01-30T06:02:00;100300.13;;;5.01;67.15
60918;BME280;46792;38.854;-9.384;2023-01-30T06:04:00;100293.34;;;4.99;67.48
60918;BME280;46792;38.854;-9.384;2023-01-30T06:06:03;100298.31;;;4.95;67.60
60918;BME280;46792;38.854;-9.384;2023-01-30T06:08:05;100300.38;;;4.86;67.89
60918;BME280;46792;38.854;-9.384;2023-01-30T06:10:07;100297.47;;;4.88;67.97
60918;BME280;46792;38.854;-9.384;2023-01-30T06:12:08;100300.13;;;4.95;67.75
60918;BME280;46792;38.854;-9.384;2023-01-30T06:14:09;100296.22;;;4.91;67.41
60918;BME280;46792;38.854;-9.384;2023-01-30T06:16:11;100301.00;;;4.89;67.65
60918;BME280;46792;38.854;-9.384;2023-01-30T06:18:12;100303.66;;;4.89;67.89
60918;BME280;46792;38.854;-9.384;2023-01-30T06:20:12;100301.00;;;4.89;67.80
60918;BME280;46792;38.854;-9.384;2023-01-30T06:22:13;100295.81;;;4.87;67.65
60918;BME280;46792;38.854;-9.384;2023-01-30T06:24:14;100299.94;;;4.90;67.78
60918;BME280;46792;38.854;-9.384;2023-01-30T06:26:14;100284.31;;;4.80;68.11
60918;BME280;46792;38.854;-9.384;2023-01-30T06:28:16;100308.56;;;4.92;67.92
60918;BME280;46792;38.854;-9.384;2023-01-30T06:30:16;100306.53;;;4.87;67.58
60918;BME280;46792;38.854;-9.384;2023-01-30T06:32:17;100319.28;;;4.92;67.24
60918;BME280;46792;38.854;-9.384;2023-01-30T06:34:18;100315.78;;;4.91;67.78
60918;BME280;46792;38.854;-9.384;2023-01-30T06:36:18;100308.19;;;4.88;68.25
60918;BME280;46792;38.854;-9.384;2023-01-30T06:38:19;100309.81;;;4.96;67.67
60918;BME280;46792;38.854;-9.384;2023-01-30T06:40:20;100307.53;;;5.06;67.09
60918;BME280;46792;38.854;-9.384;2023-01-30T06:42:20;100312.25;;;4.97;67.19
60918;BME280;46792;38.854;-9.384;2023-01-30T06:44:22;100312.50;;;4.96;66.73
60918;BME280;46792;38.854;-9.384;2023-01-30T06:46:22;100313.31;;;5.03;66.77
60918;BME280;46792;38.854;-9.384;2023-01-30T06:48:23;100320.72;;;5.01;66.36
60918;BME280;46792;38.854;-9.384;2023-01-30T06:50:26;100318.22;;;5.06;66.27
60918;BME280;46792;38.854;-9.384;2023-01-30T06:52:27;100322.56;;;5.07;66.48
60918;BME280;46792;38.854;-9.384;2023-01-30T06:54:28;100322.56;;;5.00;66.00
60918;BME280;46792;38.854;-9.384;2023-01-30T06:56:28;100314.13;;;5.03;66.34
60918;BME280;46792;38.854;-9.384;2023-01-30T06:58:29;100316.19;;;5.01;66.12
60918;BME280;46792;38.854;-9.384;2023-01-30T07:00:30;100328.94;;;4.99;66.23
60918;BME280;46792;38.854;-9.384;2023-01-30T07:02:31;100324.41;;;5.07;66.09
60918;BME280;46792;38.854;-9.384;2023-01-30T07:04:34;100340.69;;;5.12;65.83
60918;BME280;46792;38.854;-9.384;2023-01-30T07:06:35;100334.91;;;5.08;66.15
60918;BME280;46792;38.854;-9.384;2023-01-30T07:08:35;100348.28;;;5.08;66.15
60918;BME280;46792;38.854;-9.384;2023-01-30T07:10:36;100355.28;;;5.02;65.78
60918;BME280;46792;38.854;-9.384;2023-01-30T07:12:37;100357.56;;;4.99;66.29
60918;BME280;46792;38.854;-9.384;2023-01-30T07:14:37;100354.25;;;5.03;66.09
60918;BME280;46792;38.854;-9.384;2023-01-30T07:16:38;100343.16;;;4.93;66.34
60918;BME280;46792;38.854;-9.384;2023-01-30T07:18:39;100360.25;;;4.99;66.06
60918;BME280;46792;38.854;-9.384;2023-01-30T07:20:39;100358.59;;;4.98;66.10
60918;BME280;46792;38.854;-9.384;2023-01-30T07:22:41;100370.72;;;4.87;66.09
60918;BME280;46792;38.854;-9.384;2023-01-30T07:24:42;100376.09;;;4.80;66.53
60918;BME280;46792;38.854;-9.384;2023-01-30T07:26:42;100380.41;;;4.81;66.77
60918;BME280;46792;38.854;-9.384;2023-01-30T07:28:43;100372.16;;;4.76;66.80
60918;BME280;46792;38.854;-9.384;2023-01-30T07:30:43;100376.88;;;4.67;66.76
60918;BME280;46792;38.854;-9.384;2023-01-30T07:33:04;100373.19;;;4.62;67.26
60918;BME280;46792;38.854;-9.384;2023-01-30T07:35:26;100380.81;;;4.65;67.44
60918;BME280;46792;38.854;-9.384;2023-01-30T07:37:27;100380.41;;;4.61;67.21
60918;BME280;46792;38.854;-9.384;2023-01-30T07:39:27;100376.25;;;4.59;67.56
60918;BME280;46792;38.854;-9.384;2023-01-30T07:41:28;100371.75;;;4.52;67.38
60918;BME280;46792;38.854;-9.384;2023-01-30T07:43:29;100374.41;;;4.52;67.63
60918;BME280;46792;38.854;-9.384;2023-01-30T07:45:41;100368.66;;;4.49;67.52
60918;BME280;46792;38.854;-9.384;2023-01-30T07:47:42;100383.69;;;4.56;67.60
60918;BME280;46792;38.854;-9.384;2023-01-30T07:49:43;100381.00;;;4.56;67.59
60918;BME280;46792;38.854;-9.384;2023-01-30T07:51:43;100388.41;;;4.54;67.21
60918;BME280;46792;38.854;-9.384;2023-01-30T07:53:48;100385.13;;;4.59;67.58
60918;BME280;46792;38.854;-9.384;2023-01-30T07:55:49;100388.81;;;4.65;66.66
60918;BME280;46792;38.854;-9.384;2023-01-30T07:58:11;100390.88;;;4.63;66.98
60918;BME280;46792;38.854;-9.384;2023-01-30T08:00:13;100395.59;;;4.61;67.33
60918;BME280;46792;38.854;-9.384;2023-01-30T08:02:14;100390.06;;;4.69;67.36
